Extreme weather reports worldwide

Low visibility

Station
 
Location
 
Name
 
Wind
Knots
Gust
Knots
Vis
SM
Temp/Dew
C
Baro
inHg
METAR
 
BGO ENBR Bergen, NO Bergen Airport Flesland 4 0 3/-4 30.15 ENBR 050220Z AUTO 14004KT 0000 R17///// R35/P2000N NCD 03/M04 Q1021 RMK WIND 1200FT 11013KT
RKNF Noinbong, KR Whang Ryeong Helipad 3 0 -2/-3 30.06 RKNF 050151Z 21003KT 0000 -SN FG VV000 M02/M03 A3006 RMK CIG000
URC ZWWW Ürümqi, CN Ürümqi Diwopu International Airport 2 0.06 -8/-9 30.47 ZWWW 050230Z VRB01MPS 0100 R25/0175N -SG FZFG VV001 M08/M09 Q1032 NOSIG
KMWN 26 0.06 -2/-2 KMWN 050147Z 20026KT 1/16SM FZFG VV001 M02/M02 RMK VRY LGT GICG AND ICG
RZE EPRZ Rzeszów, PL Rzeszów-Jasionka Airport 3 0.09 6/6 29.76 EPRZ 050230Z 09003KT 070V130 0150 R27/0700D FG VV002 06/06 Q1008

Station
 
Location
 
Name
 
Wind
Knots
Gust
Knots
Vis
SM
Temp/Dew
C
Baro
inHg
METAR
 
MRV URMM Mineralnyye Vody, RU Mineralnyye Vody Airport 8 0.12 2/2 30.06 URMM 050230Z 09004MPS 0200 0150NW R11/0550N FG VV002 02/02 Q1018 R11/190060 NOSIG RMK QBB060 MT OBSC OBST OBSC QFE735/0980
ETHB DE Bückeburg Air Base 1 0.12 7/7 29.88 ETHB 050220Z 22001KT 0200 FG VV000 07/07 Q1012 RED
LPK UUOL Lipetsk, RU Lipetsk Airport 2 0.19 -5/-5 30.18 UUOL 050230Z AUTO 21001MPS 0300 0200SE R15/0200U FZFG VV001 M05/M05 Q1022
BDM LTBG TR Bandırma Airport 1 0.19 5/5 29.82 LTBG 050139Z 27001KT 0300 R36/0375N R18/0400D FG NSC 05/05 Q1010 NOSIG RMK RWY18 26003KT
FMO EDDG Münster, DE Münster Osnabrück Airport 2 0.22 5/5 29.91 EDDG 050220Z AUTO 24002KT 0350 R25/0450N FG NSC 05/05 Q1013 TEMPO 2000 BCFG
KMLP 7 0.25 -8/-10 29.70 KMLP 050244Z AUTO 23007KT 180V250 1/4SM +SN FZFG BKN004 OVC011 M09/M11 A2970 RMK AO2 SNB0156 P0004 T10891106 $
KY23 0 0.25 -1/-1 30.02 KY23 050235Z AUTO 00000KT 1/4SM FZFG OVC002 M01/M01 A3002 RMK AO2 T10111015
SSI KSSI St Simons Island, US St Simons Island Airport 6 0.25 14/14 30.10 KSSI 050235Z AUTO 10006KT M1/4SM FG OVC002 14/14 A3010 RMK AO2
RIE KRPD Rice Lake, US Rice Lake Regional Airport - Carl's Field 0 0.25 -3/-4 30.04 KRPD 050235Z AUTO 00000KT 1/4SM -SN OVC002 M03/M04 A3004 RMK AO2 T10321041
GVW KGVW Belton, US Richards-Gebaur Air Force Base 6 0.25 20/20 29.85 KGVW 050235Z AUTO 13006KT 1/4SM FG OVC003 20/20 A2985 RMK A01
BQK KBQK Brunswick, US Brunswick Golden Isles Airport 3 0.25 13/13 30.11 KBQK 050235Z AUTO 12003KT 1/4SM FG OVC002 13/13 A3011 RMK AO2 T01340134
RKP KRKP Rockport, US Aransas County Airport 3 0.25 21/21 29.82 KRKP 050225Z AUTO 13003KT 1/4SM FG VV003 21/21 A2982 RMK AO2 T02110211
IST LTFM Istanbul, TR Istanbul Airport 6 0.25 6/6 29.82 LTFM 050220Z 34006KT 290V360 0400 R35R/0800U R17L/0250N R34L/0325N R36/0450N FG VV002 06/06 Q1010 NOSIG RMK RWY17L 30004KT RWY34L 32006KT RWY16R 31003KT RWY36 33005KT RWY18 32005KT
UST KSGJ St Augustine, US Northeast Florida Regional Airport 5 0.25 16/16 30.11 KSGJ 050215Z AUTO 36005KT 1/4SM -RA FG OVC002 16/16 A3011 RMK AO2 PNO $
PIZ PPIZ Point Lay, US Point Lay LRRS Airport 31 37 0.25 -24/-27 29.85 PPIZ 050206Z AUTO 05031G37KT 1/4SM -SN FZFG OVC003 M24/M27 A2985 RMK AO2 PK WND 05037/0202 P0000 FZRANO
URMG Grozny, RU Khankala Air Base 0 0.28 2/1 30.06 URMG 050230Z 00000MPS 0450 0400SE R26/1000N FG BKN002 02/01 Q1018 R26/090070 NOSIG RMK QBB060 MT OBSC OBST OBSC QFE749/0998
KAJ EFKI Kajaani, FI Kajaani Airport 2 0.28 -10/-11 30.50 EFKI 050220Z AUTO 14002KT 0450 R07/1600 FZFG OVC001 M10/M11 Q1033
LIVF 4 0.31 8/7 29.79 LIVF 050155Z 03004KT 0500 FG VV/// 08/07 Q1009 RMK MON INVIS VAL INVIS VIS MIN 0500
ETNW DE Wunstorf Air Base 2 0.37 7/7 29.91 ETNW 050230Z 17002KT 0600 FG BKN002 07/07 Q1013 RED
YPH CYPH Inukjuak, CA Inukjuak Airport 26 0.38 -17/-19 29.90 CYPH 050245Z AUTO 10026KT 3/8SM SN BLSN SCT026 OVC038 M17/M19 A2990 RMK SLP129
ERF EDDE Erfurt, DE Erfurt Airport 2 0.4 6/6 29.88 EDDE 050220Z AUTO 01002KT 0650 0400 R27/1000D FG BKN001 BKN007 06/06 Q1012
IXW VEJS Jamshedpur, IN Sonari Airport 0 0.43 20/20 30.00 VEJS 050200Z 00000KT 0700 RMID/1000 FG SCT020 BKN100 20/20 Q1016
KSF EDVK Kassel, DE Kassel-Calden Airport 3 0.47 6/6 29.88 EDVK 050220Z AUTO 27003KT 0750 R27/1800U // BKN001/// 06/06 Q1012
ORH KORH Worcester, US Worcester Regional Airport 8 0.5 3/3 30.39 KORH 050246Z AUTO 06008KT 1/2SM R11/P6000FT FG VV002 04/03 A3039 RMK AO2 T00390033
KRCX Ladysmith, US Rusk County Airport 0 0.5 -2/-2 30.02 KRCX 050235Z AUTO 00000KT 1/2SM FZFG OVC002 M02/M02 A3002 RMK AO2 T10221022
KFHB 5 0.5 14/13 30.11 KFHB 050235Z AUTO 07005KT 1/2SM FG OVC003 14/13 A3011 RMK AO2
KEZM Eastman, US Heart of Georgia Regional Airport 0 0.5 13/13 30.11 KEZM 050235Z AUTO 00000KT 1/2SM FG VV005 13/13 A3011 RMK AO2
NRB KNRB Mayport, US Naval Station Mayport (Admiral David L. Mcdonald Field) 4 0.5 16/15 30.10 KNRB 050224Z 10004KT 1/2SM FG VV003 17/15 A3010 RMK AO2 T01670150
GLS KGLS Galveston, US Scholes International At Galveston Airport 4 0.5 19/19 29.84 KGLS 050203Z AUTO 12004KT 1/2SM FG VV002 19/19 A2984 RMK AO2 T01940194
KNGP Corpus Christi, US Corpus Christi Naval Air Station/Truax Field 3 0.5 22/22 29.82 KNGP 050156Z 06003KT 1/2SM FG VV002 23/22 A2982 RMK AO2 SLP097 T02280222 $
DAB KDAB Daytona Beach, US Daytona Beach International Airport 6 0.5 17/17 30.07 KDAB 050153Z 02006KT 1/2SM FG VV003 17/17 A3007 RMK AO2 SLP183 T01720172 RVRNO
OZP LEMO Morón, ES Moron Air Base 2 0.56 6/5 30.21 LEMO 050245Z VRB02KT 0900 R20/P2000 R02/P2000 FG FEW002 06/05 Q1023 NOSIG
DYU UTDD Dushanbe, TJ Dushanbe Airport 0 0.56 -4/-6 30.18 UTDD 050230Z 00000MPS 0900 0750N R09/1500N FU NSC M04/M06 Q1022 R09/CLRD// TEMPO 0700 FU RMK QFE697/0930
LEJ EDDP Leipzig, DE Leipzig/Halle Airport 1 0.56 7/7 29.88 EDDP 050220Z AUTO 21001KT 0900 0700 R08R/1300U R08L/1200D DZ FG BKN002 07/07 Q1012 TEMPO BKN002
VAS LTAR Sivas, TR Sivas Nuri Demirağ Airport 3 0.56 -5/-5 29.97 LTAR 050150Z 11003KT 0900 R01/1100U R19/0400N BCFG BKN001 M05/M05 Q1015
KQT UTDT Kurgan-Tyube, TJ Qurghonteppa International Airport 0 0.62 -2/-2 30.15 UTDT 050230Z 00000MPS 1000 R35/1000 BR SCT073 SCT130 M02/M02 Q1021 R35/CLRD70 RMK QFE726/0968
GRQ EHGG Groningen, NL Eelde Airport 1 0.62 7/7 29.91 EHGG 050225Z AUTO 24001KT 1000 R23/1400N BR SCT000/// OVC014/// 07/07 Q1013
VEKI 7 0.62 15/14 29.94 VEKI 050200Z 28007KT 1000 BR NSC 15/14 Q1014 BECMG 1500 BR
ADD HAAB Addis Ababa, ET Addis Ababa Bole International Airport 8 0.62 14/14 30.32 HAAB 050200Z 14008KT 1000 FG /// 14/14 Q1027
DEL VIDP New Delhi, IN Indira Gandhi International Airport 5 0.68 12/8 30.09 VIDP 050230Z 27005KT 1100 R28/2000 R27/2000 R29R/2000 R29L/2000 BR NSC 12/08 Q1019 NOSIG
GRZ LOWG Graz, AT Graz Airport 2 0.68 3/3 29.79 LOWG 050220Z AUTO VRB02KT 1100 R16/0800U R34/P1500U BCFG NCD 03/03 Q1009
HOQ EDQM Hof, DE Hof-Plauen Airport 2 0.68 5/5 29.85 EDQM 050220Z AUTO VRB02KT 1100 R26/1100U // VV/// 05/05 Q1011
NUL PANU Nulato, US Nulato Airport 4 0.75 -7/-8 29.68 PANU 050235Z AUTO 09004KT 3/4SM UP BR BKN004 OVC009 M07/M08 A2968 RMK AO2
KRAS Port Aransas, US Mustang Beach Airport 5 0.75 20/19 29.85 KRAS 050235Z AUTO 10005KT 3/4SM BR OVC003 20/20 A2985 RMK AO2 T02030199
KC07 4 0.75 -11/-11 29.86 KC07 050235Z AUTO 30004KT 3/4SM SN OVC001 M11/M11 A2986 RMK AO2 P0002